createdAt,value
2018-04-10T00:01:25.963Z,25.07
2018-04-10T00:03:52.152Z,23.83
2018-04-10T00:06:19.104Z,22.90
2018-04-10T00:08:45.332Z,30.00
2018-04-10T00:11:11.568Z,25.23
2018-04-10T00:13:37.760Z,27.67
2018-04-10T00:16:03.964Z,28.13
2018-04-10T00:18:30.155Z,30.73
2018-04-10T00:20:56.365Z,31.83
2018-04-10T00:23:22.576Z,31.73
2018-04-10T00:25:49.533Z,31.57
2018-04-10T00:28:16.464Z,28.20
2018-04-10T00:30:42.665Z,29.30
2018-04-10T00:33:08.873Z,30.40
2018-04-10T00:35:35.068Z,33.40
2018-04-10T00:38:02.032Z,28.93
2018-04-10T00:40:28.215Z,29.37
2018-04-10T00:42:54.413Z,28.43
2018-04-10T00:45:20.636Z,26.83
2018-04-10T00:47:46.824Z,29.73
2018-04-10T00:50:13.765Z,28.13
2018-04-10T00:52:40.716Z,27.40
2018-04-10T00:55:07.668Z,27.10
2018-04-10T00:57:33.856Z,29.00
2018-04-10T01:00:00.064Z,28.63
2018-04-10T01:02:26.287Z,28.10
2018-04-10T01:04:52.508Z,29.97
2018-04-10T01:07:18.700Z,29.20
2018-04-10T01:09:45.621Z,28.73
2018-04-10T01:12:11.824Z,31.80
2018-04-10T01:14:38.044Z,26.33
2018-04-10T01:17:04.259Z,30.07
2018-04-10T01:19:30.464Z,29.80
2018-04-10T01:21:56.633Z,29.40
2018-04-10T01:24:22.831Z,33.73
2018-04-10T01:26:49.031Z,30.70
2018-04-10T01:29:15.962Z,33.73
2018-04-10T01:31:42.176Z,34.23
2018-04-10T01:34:08.392Z,34.50
2018-04-10T01:36:34.576Z,32.80
2018-04-10T01:39:00.832Z,29.53
2018-04-10T01:41:27.071Z,36.57
2018-04-10T01:43:53.281Z,31.67
2018-04-10T01:46:19.471Z,32.97
2018-04-10T01:48:45.664Z,38.33
2018-04-10T01:54:26.272Z,42.43
2018-04-10T01:56:52.495Z,45.57
2018-04-10T01:59:18.708Z,41.47
2018-04-10T02:01:44.913Z,42.50
2018-04-10T02:04:11.088Z,37.90
2018-04-10T02:06:37.299Z,39.03
2018-04-10T02:09:03.471Z,36.67
2018-04-10T02:11:29.659Z,40.80
2018-04-10T02:13:55.836Z,34.53
2018-04-10T02:16:22.024Z,29.07
2018-04-10T02:18:48.206Z,35.60
2018-04-10T02:21:14.404Z,37.40
2018-04-10T02:23:41.347Z,35.73
2018-04-10T02:26:08.255Z,46.23
2018-04-10T02:28:34.460Z,45.63
2018-04-10T02:31:00.644Z,47.57
2018-04-10T02:33:27.588Z,46.63
2018-04-10T02:35:54.508Z,34.90
2018-04-10T02:38:20.693Z,34.33
2018-04-10T02:40:46.896Z,39.23
2018-04-10T02:43:13.104Z,49.13
2018-04-10T02:45:39.296Z,51.10
2018-04-10T02:48:05.569Z,50.07
2018-04-10T02:50:32.511Z,44.23
2018-04-10T02:52:58.700Z,50.50
2018-04-10T02:55:25.660Z,47.53
2018-04-10T02:57:51.867Z,45.20
2018-04-10T03:00:18.098Z,45.40
2018-04-10T03:02:44.284Z,42.63
2018-04-10T03:05:11.272Z,45.33
2018-04-10T03:07:37.466Z,50.30
2018-04-10T03:10:03.650Z,67.73
2018-04-10T03:12:29.852Z,50.90
2018-04-10T03:14:56.037Z,58.50
2018-04-10T03:17:22.978Z,52.63
2018-04-10T03:19:49.924Z,62.37
2018-04-10T03:22:16.839Z,58.33
2018-04-10T03:24:43.036Z,57.00
2018-04-10T03:27:09.240Z,52.73
2018-04-10T03:29:35.485Z,41.37
2018-04-10T03:32:01.668Z,47.63
2018-04-10T03:34:27.878Z,39.47
2018-04-10T03:36:54.085Z,32.43
2018-04-10T03:39:20.297Z,31.20
2018-04-10T03:41:46.525Z,32.93
2018-04-10T03:44:12.720Z,32.17
2018-04-10T03:46:39.678Z,33.87
2018-04-10T03:49:06.611Z,39.60
2018-04-10T03:51:33.612Z,35.20
2018-04-10T03:53:59.804Z,37.83
2018-04-10T03:56:26.025Z,35.73
2018-04-10T03:58:52.959Z,38.07
2018-04-10T04:01:19.867Z,38.53
2018-04-10T04:03:46.081Z,46.17
2018-04-10T04:06:12.287Z,38.27
2018-04-10T04:08:38.505Z,33.77
2018-04-10T04:11:04.704Z,30.53
2018-04-10T04:13:30.931Z,31.67
2018-04-10T04:15:57.097Z,31.60
2018-04-10T04:18:42.052Z,25.60
2018-04-10T04:24:17.521Z,20.67
2018-04-10T04:26:44.364Z,27.57
2018-04-10T04:29:11.244Z,26.47
2018-04-10T04:31:37.425Z,25.20
2018-04-10T04:34:04.389Z,26.23
2018-04-10T04:36:30.596Z,26.50
2018-04-10T04:38:57.564Z,30.53
2018-04-10T04:41:23.780Z,35.13
2018-04-10T04:43:50.748Z,35.90
2018-04-10T04:46:16.944Z,35.80
2018-04-10T04:48:43.888Z,36.37
2018-04-10T04:51:10.829Z,28.90
2018-04-10T04:53:37.788Z,28.60
2018-04-10T04:56:04.716Z,20.70
2018-04-10T04:58:30.968Z,19.17
2018-04-10T05:00:57.164Z,15.90
2018-04-10T05:03:23.344Z,14.70
2018-04-10T05:05:49.501Z,12.70
2018-04-10T05:08:15.692Z,12.17
2018-04-10T05:10:41.908Z,13.60
2018-04-10T05:13:08.100Z,16.27
2018-04-10T05:15:34.261Z,16.47
2018-04-10T05:18:00.460Z,14.47
2018-04-10T05:20:26.649Z,15.63
2018-04-10T05:22:52.832Z,10.73
2018-04-10T05:25:19.759Z,12.37
2018-04-10T05:27:45.941Z,15.80
2018-04-10T05:30:12.139Z,13.90
2018-04-10T05:32:38.338Z,13.30
2018-04-10T05:35:04.521Z,15.00
2018-04-10T05:37:30.722Z,9.23
2018-04-10T05:39:56.935Z,12.33
2018-04-10T05:42:23.893Z,12.23
2018-04-10T05:44:50.812Z,13.10
2018-04-10T05:47:16.988Z,10.73
2018-04-10T05:49:43.171Z,11.47
2018-04-10T05:52:09.390Z,10.27
2018-04-10T05:54:35.604Z,10.17
2018-04-10T05:57:01.807Z,11.80
2018-04-10T05:59:27.980Z,13.93
2018-04-10T06:01:54.172Z,10.37
2018-04-10T06:04:20.315Z,10.77
2018-04-10T06:06:46.528Z,9.47
2018-04-10T06:09:12.712Z,11.87
2018-04-10T06:11:39.648Z,9.97
2018-04-10T06:14:06.580Z,14.27
2018-04-10T06:16:32.774Z,13.83
2018-04-10T06:18:58.948Z,11.07
2018-04-10T06:21:25.937Z,12.43
2018-04-10T06:23:52.109Z,13.60
2018-04-10T06:26:18.320Z,17.70
2018-04-10T06:28:44.512Z,8.93
2018-04-10T06:31:10.696Z,11.03
2018-04-10T06:33:36.889Z,15.30
2018-04-10T06:36:03.145Z,16.03
2018-04-10T06:38:30.097Z,13.03
2018-04-10T06:40:56.279Z,16.27
2018-04-10T06:43:22.476Z,16.80
2018-04-10T06:45:49.421Z,17.57
2018-04-10T06:48:16.365Z,13.43
2018-04-10T06:50:43.320Z,17.87
2018-04-10T06:53:10.261Z,15.57
2018-04-10T06:55:36.489Z,22.43
2018-04-10T06:58:02.669Z,18.70
2018-04-10T07:00:28.859Z,14.70
2018-04-10T07:02:55.053Z,11.27
2018-04-10T07:05:21.260Z,17.40
2018-04-10T07:07:47.455Z,12.00
2018-04-10T07:10:13.654Z,15.60
2018-04-10T07:12:40.600Z,13.00
2018-04-10T07:15:07.549Z,19.53
2018-04-10T07:17:34.476Z,12.07
2018-04-10T07:20:00.692Z,18.83
2018-04-10T07:22:26.909Z,13.63
2018-04-10T07:24:53.107Z,10.97
2018-04-10T07:27:19.372Z,12.33
2018-04-10T07:29:45.564Z,12.70
2018-04-10T07:32:11.772Z,12.23
2018-04-10T07:34:37.976Z,13.17
2018-04-10T07:37:04.956Z,12.47
2018-04-10T07:39:31.168Z,14.33
2018-04-10T07:41:58.125Z,13.37
2018-04-10T07:44:24.324Z,13.55
2018-04-10T07:46:51.263Z,16.70
2018-04-10T07:49:17.501Z,13.57
2018-04-10T07:51:44.464Z,12.75
2018-04-10T07:54:10.669Z,9.07
2018-04-10T07:56:37.631Z,10.65
2018-04-10T07:59:04.569Z,13.23
2018-04-10T08:01:31.525Z,11.05
2018-04-10T08:03:57.712Z,11.15
2018-04-10T08:06:23.944Z,13.10
2018-04-10T08:08:50.136Z,13.57
2018-04-10T08:11:16.334Z,15.85
2018-04-10T08:13:43.277Z,10.13
2018-04-10T08:16:10.215Z,14.90
2018-04-10T08:18:37.151Z,13.85
2018-04-10T08:21:03.353Z,10.00
2018-04-10T08:23:29.580Z,11.98
2018-04-10T08:26:15.705Z,9.27
2018-04-10T08:28:42.644Z,12.75
2018-04-10T08:31:08.817Z,10.57
2018-04-10T08:33:39.844Z,10.15
2018-04-10T08:42:31.152Z,13.52
2018-04-10T08:45:06.402Z,18.40
2018-04-10T08:47:32.613Z,9.13
2018-04-10T08:49:59.545Z,11.40
2018-04-10T08:52:25.760Z,15.68
2018-04-10T08:55:21.568Z,13.77
2018-04-10T08:58:14.988Z,9.63
2018-04-10T09:00:41.208Z,9.73
2018-04-10T09:03:07.413Z,9.80
2018-04-10T09:05:35.685Z,12.00
2018-04-10T09:08:01.860Z,10.50
2018-04-10T09:10:58.977Z,8.88
2018-04-10T09:13:25.196Z,10.13
2018-04-10T09:15:51.381Z,8.77
2018-04-10T09:18:18.316Z,9.80
2018-04-10T09:20:44.965Z,9.48
2018-04-10T09:23:11.301Z,10.65
2018-04-10T09:25:37.641Z,10.40
2018-04-10T09:28:03.865Z,16.25
2018-04-10T09:33:33.597Z,10.13
2018-04-10T09:35:59.824Z,6.80
2018-04-10T09:38:26.764Z,8.63
2018-04-10T09:40:53.696Z,5.50
2018-04-10T09:43:19.903Z,7.90
2018-04-10T09:45:46.132Z,7.40
2018-04-10T09:48:12.337Z,6.00
2018-04-10T09:50:38.536Z,7.75
2018-04-10T09:53:04.740Z,9.57
2018-04-10T09:55:31.673Z,12.68
2018-04-10T09:57:57.864Z,10.50
2018-04-10T10:00:30.171Z,8.18
2018-04-10T10:02:56.360Z,24.20
2018-04-10T10:05:22.529Z,7.80
2018-04-10T10:07:48.763Z,6.25
2018-04-10T10:10:15.716Z,7.30
2018-04-10T10:12:42.693Z,7.37
2018-04-10T10:15:08.873Z,6.87
2018-04-10T10:17:35.085Z,13.20
2018-04-10T10:20:01.256Z,7.47
2018-04-10T10:22:28.200Z,7.82
2018-04-10T10:24:55.144Z,5.15
2018-04-10T10:27:22.084Z,8.57
2018-04-10T10:29:49.029Z,7.47
2018-04-10T10:32:15.963Z,4.35
2018-04-10T10:34:42.152Z,4.78
2018-04-10T10:37:08.312Z,6.18
2018-04-10T10:39:34.498Z,5.82
2018-04-10T10:42:00.698Z,5.10
2018-04-10T10:44:26.890Z,5.25
2018-04-10T10:46:53.053Z,5.93
2018-04-10T10:49:19.252Z,6.68
2018-04-10T10:51:45.420Z,8.73
2018-04-10T10:54:11.601Z,5.68
2018-04-10T10:56:37.828Z,8.57
2018-04-10T10:59:04.032Z,9.60
2018-04-10T11:01:30.242Z,3.90
2018-04-10T11:03:56.441Z,3.65
2018-04-10T11:06:23.379Z,10.75
2018-04-10T11:08:50.292Z,4.87
2018-04-10T11:11:16.471Z,6.37
2018-04-10T11:13:43.365Z,4.90
2018-04-10T11:16:09.472Z,19.73
2018-04-10T11:18:35.553Z,4.43
2018-04-10T11:21:01.657Z,5.45
2018-04-10T11:23:27.752Z,5.93
2018-04-10T11:25:53.848Z,5.43
2018-04-10T11:28:20.662Z,9.45
2018-04-10T11:30:46.752Z,7.25
2018-04-10T11:33:12.840Z,5.35
2018-04-10T11:35:39.672Z,6.18
2018-04-10T11:38:05.745Z,6.12
2018-04-10T11:40:31.831Z,6.80
2018-04-10T11:42:58.660Z,7.70
2018-04-10T11:45:24.759Z,9.98
2018-04-10T11:47:50.847Z,5.72
2018-04-10T11:50:16.936Z,5.72
2018-04-10T11:52:43.031Z,3.92
2018-04-10T11:55:09.114Z,25.92
2018-04-10T11:57:35.934Z,6.12
2018-04-10T12:00:02.028Z,8.55
2018-04-10T12:02:28.119Z,7.78
2018-04-10T12:04:54.198Z,4.43
2018-04-10T12:07:20.280Z,6.00
2018-04-10T12:09:46.376Z,3.97
2018-04-10T12:12:13.199Z,4.97
2018-04-10T12:14:39.282Z,6.87
2018-04-10T12:17:05.378Z,6.03
2018-04-10T12:19:32.198Z,4.70
2018-04-10T12:21:58.284Z,5.62
2018-04-10T12:24:24.367Z,7.82
2018-04-10T12:26:51.198Z,4.55
2018-04-10T12:29:18.016Z,3.35
2018-04-10T12:31:44.100Z,7.28
2018-04-10T12:34:10.178Z,4.22
2018-04-10T12:36:36.276Z,6.85
2018-04-10T12:39:02.351Z,2.80
2018-04-10T12:41:29.179Z,4.37
2018-04-10T12:43:55.284Z,6.97
2018-04-10T12:46:21.364Z,3.85
2018-04-10T12:48:47.443Z,5.20
2018-04-10T12:51:13.536Z,4.62
2018-04-10T12:53:39.619Z,5.75
2018-04-10T12:56:06.445Z,2.40
2018-04-10T12:58:32.515Z,5.15
2018-04-10T13:00:58.607Z,1.70
2018-04-10T13:03:25.428Z,5.90
2018-04-10T13:05:52.269Z,4.57
2018-04-10T13:08:18.351Z,5.57
2018-04-10T13:10:44.431Z,3.83
2018-04-10T13:13:11.269Z,4.82
2018-04-10T13:15:37.366Z,3.30
2018-04-10T13:18:03.435Z,3.78
2018-04-10T13:20:30.283Z,6.22
2018-04-10T13:22:57.104Z,4.32
2018-04-10T13:25:23.195Z,4.15
2018-04-10T13:27:49.283Z,6.15
2018-04-10T13:30:16.112Z,5.03
2018-04-10T13:32:42.944Z,6.25
2018-04-10T13:35:09.019Z,6.12
2018-04-10T13:37:35.104Z,6.50
2018-04-10T13:40:01.920Z,5.15
2018-04-10T13:42:28.020Z,5.40
2018-04-10T13:44:54.107Z,3.75
2018-04-10T13:47:20.922Z,4.00
2018-04-10T13:49:46.996Z,5.25
2018-04-10T13:52:13.070Z,7.47
2018-04-10T13:54:39.889Z,6.18
2018-04-10T13:57:05.972Z,3.87
2018-04-10T13:59:32.858Z,6.68
2018-04-10T14:01:59.648Z,6.95
2018-04-10T14:04:26.485Z,4.97
2018-04-10T14:06:52.574Z,6.25
2018-04-10T14:09:18.664Z,5.43
2018-04-10T14:11:44.756Z,3.67
2018-04-10T14:14:10.880Z,4.60
2018-04-10T14:16:36.938Z,7.53
2018-04-10T14:19:03.020Z,3.42
2018-04-10T14:21:29.119Z,2.65
2018-04-10T14:23:55.199Z,5.68
2018-04-10T14:26:22.021Z,9.30
2018-04-10T14:28:48.108Z,3.60
2018-04-10T14:31:14.182Z,5.50
2018-04-10T14:33:40.272Z,6.18
2018-04-10T14:36:06.345Z,5.37
2018-04-10T14:38:33.172Z,3.62
2018-04-10T14:40:59.252Z,6.20
2018-04-10T14:43:25.335Z,2.22
2018-04-10T14:45:52.168Z,2.55
2018-04-10T14:48:19.012Z,2.95
2018-04-10T14:50:45.831Z,2.60
2018-04-10T14:53:11.932Z,3.47
2018-04-10T14:55:38.021Z,4.85
2018-04-10T14:58:04.847Z,6.32
2018-04-10T15:00:30.928Z,4.30
2018-04-10T15:02:57.019Z,2.33
2018-04-10T15:05:23.115Z,4.97
2018-04-10T15:07:49.208Z,2.30
2018-04-10T15:10:15.291Z,4.30
2018-04-10T15:12:42.116Z,5.47
2018-04-10T15:15:08.184Z,5.35
2018-04-10T15:17:34.276Z,1.90
2018-04-10T15:20:01.098Z,3.22
2018-04-10T15:22:28.671Z,3.95
2018-04-10T15:24:55.491Z,3.92
2018-04-10T15:27:21.600Z,4.12
2018-04-10T15:29:47.691Z,2.65
2018-04-10T15:32:13.772Z,2.83
2018-04-10T15:34:39.859Z,4.22
2018-04-10T15:37:05.945Z,5.03
2018-04-10T15:39:32.775Z,2.87
2018-04-10T15:41:58.847Z,2.58
2018-04-10T15:44:24.943Z,7.53
2018-04-10T15:46:51.755Z,8.60
2018-04-10T15:49:17.837Z,5.82
2018-04-10T15:51:43.923Z,5.30
2018-04-10T15:54:10.751Z,4.37
2018-04-10T15:56:36.836Z,2.70
2018-04-10T15:59:02.923Z,5.57
2018-04-10T16:01:29.747Z,6.62
2018-04-10T16:03:55.840Z,5.15
2018-04-10T16:06:21.910Z,4.97
2018-04-10T16:08:48.021Z,3.90
2018-04-10T16:11:14.841Z,4.55
2018-04-10T16:13:40.927Z,4.62
2018-04-10T16:16:07.015Z,3.20
2018-04-10T16:18:33.108Z,4.95
2018-04-10T16:20:59.190Z,7.30
2018-04-10T16:23:26.019Z,5.50
2018-04-10T16:25:52.099Z,5.68
2018-04-10T16:28:18.183Z,5.97
2018-04-10T16:30:45.011Z,9.80
2018-04-10T16:33:11.079Z,9.68
2018-04-10T16:35:37.181Z,5.55
2018-04-10T16:38:04.000Z,7.28
2018-04-10T16:40:30.085Z,5.43
2018-04-10T16:42:56.211Z,16.15
2018-04-10T16:45:22.299Z,12.00
2018-04-10T16:47:49.119Z,6.47
2018-04-10T16:50:15.207Z,8.07
2018-04-10T16:52:41.290Z,8.75
2018-04-10T16:55:08.124Z,7.72
2018-04-10T16:57:34.947Z,4.28
2018-04-10T17:00:01.027Z,4.18
2018-04-10T17:02:27.116Z,4.72
2018-04-10T17:04:53.201Z,5.62
2018-04-10T17:07:19.274Z,4.05
2018-04-10T17:09:46.103Z,4.40
2018-04-10T17:12:12.176Z,3.90
2018-04-10T17:14:38.267Z,7.95
2018-04-10T17:17:05.071Z,4.72
2018-04-10T17:19:31.168Z,5.60
2018-04-10T17:21:57.243Z,5.95
2018-04-10T17:24:23.327Z,6.62
2018-04-10T17:26:49.407Z,4.68
2018-04-10T17:29:16.251Z,2.53
2018-04-10T17:31:43.079Z,4.50
2018-04-10T17:34:09.167Z,4.43
2018-04-10T17:36:35.240Z,5.57
2018-04-10T17:39:02.051Z,5.40
2018-04-10T17:41:28.152Z,7.40
2018-04-10T17:43:54.243Z,5.37
2018-04-10T17:46:21.085Z,4.95
2018-04-10T17:48:47.179Z,11.17
2018-04-10T17:51:13.263Z,6.43
2018-04-10T17:53:39.350Z,6.00
2018-04-10T17:56:05.437Z,4.60
2018-04-10T17:58:51.674Z,3.90
2018-04-10T18:01:17.768Z,6.10
2018-04-10T18:03:43.939Z,8.00
2018-04-10T18:06:14.340Z,4.83
2018-04-10T18:08:51.887Z,4.27
2018-04-10T18:11:42.350Z,4.23
2018-04-10T18:14:09.179Z,5.67
2018-04-10T18:16:35.267Z,4.17
2018-04-10T18:19:01.363Z,6.30
2018-04-10T18:21:38.358Z,4.03
2018-04-10T18:24:21.886Z,5.03
2018-04-10T18:26:47.970Z,6.80
2018-04-10T18:29:14.054Z,8.13
2018-04-10T18:31:40.139Z,4.47
2018-04-10T18:34:06.958Z,3.07
2018-04-10T18:36:33.052Z,6.23
2018-04-10T18:39:05.613Z,5.13
2018-04-10T18:41:31.765Z,2.67
2018-04-10T18:43:58.539Z,3.67
2018-04-10T18:46:31.115Z,6.53
2018-04-10T18:49:00.592Z,5.83
2018-04-10T18:51:26.692Z,3.90
2018-04-10T18:53:56.570Z,7.63
2018-04-10T18:56:23.402Z,4.47
2018-04-10T18:58:49.475Z,4.73
2018-04-10T19:01:18.648Z,6.53
2018-04-10T19:03:45.466Z,8.17
2018-04-10T19:06:11.547Z,4.17
2018-04-10T19:08:46.776Z,5.77
2018-04-10T19:11:12.868Z,9.30
2018-04-10T19:13:47.727Z,5.40
2018-04-10T19:16:13.816Z,6.17
2018-04-10T19:18:39.899Z,5.40
2018-04-10T19:21:05.982Z,6.80
2018-04-10T19:23:32.812Z,5.33
2018-04-10T19:25:59.638Z,6.07
2018-04-10T19:28:25.726Z,5.40
2018-04-10T19:30:51.810Z,9.80
2018-04-10T19:33:18.640Z,12.10
2018-04-10T19:35:44.718Z,5.63
2018-04-10T19:38:10.801Z,6.03
2018-04-10T19:40:37.627Z,8.93
2018-04-10T19:43:03.711Z,4.53
2018-04-10T19:45:29.845Z,8.33
2018-04-10T19:47:55.904Z,6.67
2018-04-10T19:50:21.979Z,5.70
2018-04-10T19:52:48.092Z,7.83
2018-04-10T19:55:14.163Z,7.03
2018-04-10T19:57:40.251Z,5.47
2018-04-10T20:00:06.333Z,5.53
2018-04-10T20:02:32.423Z,4.43
2018-04-10T20:04:58.506Z,6.17
2018-04-10T20:07:25.335Z,8.73
2018-04-10T20:09:51.420Z,6.63
2018-04-10T20:12:44.467Z,5.10
2018-04-10T20:15:10.551Z,5.53
2018-04-10T20:17:37.379Z,5.27
2018-04-10T20:20:03.456Z,5.20
2018-04-10T20:22:29.543Z,7.77
2018-04-10T20:24:56.367Z,7.07
2018-04-10T20:27:22.480Z,5.03
2018-04-10T20:29:48.550Z,5.60
2018-04-10T20:32:14.639Z,6.80
2018-04-10T20:34:40.715Z,4.43
2018-04-10T20:37:06.798Z,6.87
2018-04-10T20:39:32.876Z,3.80
2018-04-10T20:41:58.950Z,7.50
2018-04-10T20:44:25.055Z,4.77
2018-04-10T20:46:51.135Z,4.03
2018-04-10T20:49:17.236Z,5.33
2018-04-10T20:51:43.334Z,6.73
2018-04-10T20:54:15.136Z,4.57
2018-04-10T20:56:45.659Z,6.33
2018-04-10T20:59:12.493Z,5.63
2018-04-10T21:01:39.316Z,3.70
2018-04-10T21:04:06.139Z,4.53
2018-04-10T21:06:38.683Z,4.33
2018-04-10T21:09:15.371Z,9.87
2018-04-10T21:12:08.848Z,3.57
2018-04-10T21:14:34.934Z,8.17
2018-04-10T21:17:01.750Z,7.57
2018-04-10T21:19:27.836Z,7.47
2018-04-10T21:21:53.912Z,4.17
2018-04-10T21:24:22.739Z,5.53
2018-04-10T21:27:02.219Z,5.73
2018-04-10T21:29:39.984Z,6.57
2018-04-10T21:32:37.551Z,6.33
2018-04-10T21:35:10.323Z,5.00
2018-04-10T21:37:57.720Z,4.40
2018-04-10T21:40:24.539Z,4.53
2018-04-10T21:43:02.995Z,8.60
2018-04-10T21:45:29.083Z,8.03
2018-04-10T21:48:09.735Z,5.83
2018-04-10T21:50:39.387Z,5.57
2018-04-10T21:53:06.211Z,4.67
2018-04-10T21:55:32.287Z,6.00
2018-04-10T21:57:58.367Z,8.60
2018-04-10T22:00:25.204Z,3.67
2018-04-10T22:02:51.279Z,11.77
2018-04-10T22:05:17.370Z,6.77
2018-04-10T22:07:43.464Z,7.20
2018-04-10T22:10:09.542Z,4.73
2018-04-10T22:12:35.615Z,8.03
2018-04-10T22:15:01.706Z,6.63
2018-04-10T22:17:27.788Z,5.93
2018-04-10T22:19:54.620Z,6.13
2018-04-10T22:22:20.707Z,6.93
2018-04-10T22:24:46.795Z,8.67
2018-04-10T22:27:12.867Z,6.43
2018-04-10T22:29:38.951Z,6.00
2018-04-10T22:32:05.028Z,6.23
2018-04-10T22:34:32.575Z,6.77
2018-04-10T22:36:58.660Z,7.70
2018-04-10T22:39:24.748Z,7.77
2018-04-10T22:41:51.573Z,6.63
2018-04-10T22:44:18.420Z,5.67
2018-04-10T22:46:45.243Z,7.87
2018-04-10T22:49:11.335Z,5.33
2018-04-10T22:51:37.432Z,11.43
2018-04-10T22:54:03.526Z,5.50
2018-04-10T22:56:29.604Z,5.27
2018-04-10T22:58:55.697Z,5.43
2018-04-10T23:01:22.519Z,7.47
2018-04-10T23:03:48.622Z,7.43
2018-04-10T23:06:14.739Z,5.80
2018-04-10T23:08:40.846Z,8.97
2018-04-10T23:11:06.971Z,6.50
2018-04-10T23:13:33.078Z,6.23
2018-04-10T23:15:59.937Z,8.37
2018-04-10T23:18:26.786Z,6.47
2018-04-10T23:20:52.902Z,4.73
2018-04-10T23:23:19.754Z,5.80
2018-04-10T23:25:46.606Z,4.80
2018-04-10T23:28:13.454Z,7.23
2018-04-10T23:30:39.570Z,6.83
2018-04-10T23:33:06.423Z,8.90
2018-04-10T23:35:33.278Z,7.10
2018-04-10T23:37:59.381Z,5.00
2018-04-10T23:40:26.241Z,7.90
2018-04-10T23:42:52.357Z,9.03
2018-04-10T23:45:19.222Z,7.47
2018-04-10T23:47:45.329Z,6.33
2018-04-10T23:50:11.434Z,6.43
2018-04-10T23:52:37.541Z,8.53
2018-04-10T23:55:03.655Z,8.50
2018-04-10T23:57:29.758Z,6.93
2018-04-10T23:59:55.870Z,7.13
